createdAt,value
2019-03-18T00:00:06.966Z,99.99
2019-03-18T00:01:08.370Z,99.99
2019-03-18T00:02:09.754Z,99.99
2019-03-18T00:03:11.146Z,99.99
2019-03-18T00:04:12.534Z,99.99
2019-03-18T00:05:13.940Z,99.99
2019-03-18T00:06:15.334Z,99.99
2019-03-18T00:07:16.719Z,99.99
2019-03-18T00:08:18.112Z,99.99
2019-03-18T00:09:19.490Z,99.99
2019-03-18T00:10:20.882Z,99.99
2019-03-18T00:11:22.268Z,99.99
2019-03-18T00:12:23.650Z,99.99
2019-03-18T00:13:25.057Z,99.99
2019-03-18T00:14:26.509Z,99.99
2019-03-18T00:15:27.898Z,99.99
2019-03-18T00:16:29.292Z,99.99
2019-03-18T00:17:30.676Z,99.99
2019-03-18T00:18:32.069Z,99.99
2019-03-18T00:19:33.483Z,99.99
2019-03-18T00:20:35.822Z,99.99
2019-03-18T00:21:39.258Z,99.99
2019-03-18T00:22:40.706Z,99.99
2019-03-18T00:23:42.097Z,99.99
2019-03-18T00:24:43.488Z,99.99
2019-03-18T00:25:44.873Z,99.99
2019-03-18T00:26:46.282Z,99.99
2019-03-18T00:27:47.678Z,99.99
2019-03-18T00:28:49.512Z,99.99
2019-03-18T00:29:51.098Z,99.99
2019-03-18T00:30:52.513Z,99.99
2019-03-18T00:31:55.921Z,99.99
2019-03-18T00:32:57.670Z,99.99
2019-03-18T00:33:59.112Z,99.99
2019-03-18T00:35:00.535Z,99.99
2019-03-18T00:36:02.546Z,99.99
2019-03-18T00:37:03.936Z,99.99
2019-03-18T00:38:05.374Z,99.99
2019-03-18T00:39:07.213Z,99.99
2019-03-18T00:40:08.615Z,99.99
2019-03-18T00:41:10.017Z,99.99
2019-03-18T00:42:11.429Z,99.99
2019-03-18T00:43:12.875Z,99.99
2019-03-18T00:44:14.281Z,99.99
2019-03-18T00:45:15.935Z,99.99
2019-03-18T00:46:17.052Z,99.99
2019-03-18T00:47:18.484Z,99.99
2019-03-18T00:48:19.866Z,99.99
2019-03-18T00:49:21.256Z,99.99
2019-03-18T00:50:22.642Z,99.99
2019-03-18T00:51:24.077Z,99.99
2019-03-18T00:52:26.354Z,99.99
2019-03-18T00:53:27.766Z,99.99
2019-03-18T00:54:29.123Z,99.99
2019-03-18T00:55:30.524Z,99.99
2019-03-18T00:56:32.032Z,99.99
2019-03-18T00:57:33.422Z,99.99
2019-03-18T00:58:34.814Z,99.99
2019-03-18T00:59:36.216Z,99.99
2019-03-18T01:00:37.628Z,99.99
2019-03-18T01:01:39.069Z,99.99
2019-03-18T01:02:40.458Z,99.99
2019-03-18T01:03:41.843Z,99.99
2019-03-18T01:04:43.261Z,99.99
2019-03-18T01:05:44.643Z,99.99
2019-03-18T01:06:46.144Z,99.99
2019-03-18T01:07:47.525Z,99.99
2019-03-18T01:08:49.415Z,99.99
2019-03-18T01:09:50.819Z,99.99
2019-03-18T01:10:52.217Z,99.99
2019-03-18T01:11:53.612Z,99.99
2019-03-18T01:12:55.008Z,99.99
2019-03-18T01:13:56.429Z,99.99
2019-03-18T01:14:57.812Z,99.99
2019-03-18T01:15:59.212Z,99.99
2019-03-18T01:17:00.602Z,99.99
2019-03-18T01:18:02.004Z,99.99
2019-03-18T01:19:03.390Z,99.99
2019-03-18T01:20:04.795Z,99.99
2019-03-18T01:21:06.177Z,99.99
2019-03-18T01:22:07.572Z,99.99
2019-03-18T01:23:08.990Z,99.99
2019-03-18T01:24:10.364Z,99.99
2019-03-18T01:25:11.764Z,99.99
2019-03-18T01:26:13.150Z,99.99
2019-03-18T01:27:14.545Z,99.99
2019-03-18T01:28:15.931Z,99.99
2019-03-18T01:29:17.321Z,99.99
2019-03-18T01:30:18.701Z,99.99
2019-03-18T01:31:20.092Z,99.99
2019-03-18T01:32:21.479Z,99.99
2019-03-18T01:33:22.867Z,99.99
2019-03-18T01:34:24.266Z,99.99
2019-03-18T01:35:25.659Z,99.99
2019-03-18T01:36:27.049Z,99.99
2019-03-18T01:37:28.458Z,99.99
2019-03-18T01:38:29.875Z,99.99
2019-03-18T01:39:31.261Z,99.99
2019-03-18T01:40:32.647Z,99.99
2019-03-18T01:41:34.033Z,99.99
2019-03-18T01:42:35.421Z,99.99
2019-03-18T01:43:36.811Z,99.99
2019-03-18T01:44:38.211Z,99.99
2019-03-18T01:45:40.911Z,99.99
2019-03-18T01:46:40.957Z,99.99
2019-03-18T01:47:42.351Z,99.99
2019-03-18T01:48:43.741Z,99.99
2019-03-18T01:49:45.127Z,99.99
2019-03-18T01:50:46.518Z,99.99
2019-03-18T01:51:47.912Z,99.99
2019-03-18T01:52:49.316Z,99.99
2019-03-18T01:53:50.723Z,99.99
2019-03-18T01:54:52.124Z,99.99
2019-03-18T01:55:53.532Z,99.99
2019-03-18T01:56:54.923Z,99.99
2019-03-18T01:57:56.310Z,99.99
2019-03-18T01:58:57.701Z,99.99
2019-03-18T01:59:59.123Z,99.99
2019-03-18T02:01:00.480Z,99.99
2019-03-18T02:02:01.901Z,99.99
2019-03-18T02:03:03.295Z,99.99
2019-03-18T02:04:04.696Z,99.99
2019-03-18T02:05:06.082Z,99.99
2019-03-18T02:06:07.483Z,99.99
2019-03-18T02:07:08.864Z,99.99
2019-03-18T02:08:10.255Z,99.99
2019-03-18T02:09:11.654Z,99.99
2019-03-18T02:10:13.033Z,99.99
2019-03-18T02:11:14.426Z,99.99
2019-03-18T02:12:15.826Z,99.99
2019-03-18T02:13:17.210Z,99.99
2019-03-18T02:14:18.619Z,99.99
2019-03-18T02:15:20.013Z,99.99
2019-03-18T02:16:21.412Z,99.99
2019-03-18T02:17:22.810Z,99.99
2019-03-18T02:18:24.194Z,99.99
2019-03-18T02:19:25.588Z,99.99
2019-03-18T02:20:26.983Z,99.99
2019-03-18T02:21:28.376Z,99.99
2019-03-18T02:22:29.768Z,99.99
2019-03-18T02:23:31.161Z,99.99
2019-03-18T02:24:32.540Z,99.99
2019-03-18T02:25:33.935Z,99.99
2019-03-18T02:26:35.382Z,99.99
2019-03-18T02:27:36.709Z,99.99
2019-03-18T02:28:38.092Z,99.99
2019-03-18T02:29:39.481Z,99.99
2019-03-18T02:30:40.882Z,99.99
2019-03-18T02:31:42.267Z,99.99
2019-03-18T02:32:43.672Z,99.99
2019-03-18T02:33:45.075Z,99.99
2019-03-18T02:34:46.477Z,99.99
2019-03-18T02:35:47.858Z,99.99
2019-03-18T02:36:49.222Z,99.99
2019-03-18T02:37:50.618Z,99.99
2019-03-18T02:38:51.996Z,99.99
2019-03-18T02:39:53.392Z,99.99
2019-03-18T02:40:54.823Z,99.99
2019-03-18T02:41:56.212Z,99.99
2019-03-18T02:42:57.616Z,99.99
2019-03-18T02:43:59.019Z,99.99
2019-03-18T02:45:00.510Z,99.99
2019-03-18T02:46:10.067Z,99.99
2019-03-18T02:47:03.153Z,99.99
2019-03-18T02:48:04.570Z,99.99
2019-03-18T02:49:05.961Z,99.99
2019-03-18T02:50:07.357Z,99.99
2019-03-18T02:51:08.751Z,99.99
2019-03-18T02:52:10.146Z,99.99
2019-03-18T02:53:11.533Z,99.99
2019-03-18T02:54:12.940Z,99.99
2019-03-18T02:55:14.336Z,99.99
2019-03-18T02:56:15.741Z,99.99
2019-03-18T02:57:17.125Z,99.99
2019-03-18T02:58:18.515Z,99.99
2019-03-18T02:59:19.901Z,99.99
2019-03-18T03:00:21.296Z,99.99
2019-03-18T03:01:22.671Z,99.99
2019-03-18T03:02:24.076Z,99.99
2019-03-18T03:03:25.452Z,99.99
2019-03-18T03:04:26.844Z,99.99
2019-03-18T03:05:28.237Z,99.99
2019-03-18T03:06:29.628Z,99.99
2019-03-18T03:07:31.036Z,99.99
2019-03-18T03:08:32.425Z,99.99
2019-03-18T03:09:33.821Z,99.99
2019-03-18T03:10:35.207Z,99.99
2019-03-18T03:11:36.609Z,99.99
2019-03-18T03:12:37.985Z,99.99
2019-03-18T03:13:39.382Z,99.99
2019-03-18T03:14:40.769Z,99.99
2019-03-18T03:15:42.173Z,99.99
2019-03-18T03:16:43.604Z,99.99
2019-03-18T03:17:44.953Z,99.99
2019-03-18T03:18:46.351Z,99.99
2019-03-18T03:19:47.729Z,99.99
2019-03-18T03:20:49.125Z,99.99
2019-03-18T03:21:50.513Z,99.99
2019-03-18T03:22:51.899Z,99.99
2019-03-18T03:23:53.293Z,99.77
2019-03-18T03:24:54.684Z,99.99
2019-03-18T03:25:56.086Z,99.99
2019-03-18T03:26:57.504Z,99.68
2019-03-18T03:27:58.913Z,99.99
2019-03-18T03:29:00.303Z,99.68
2019-03-18T03:30:01.729Z,99.68
2019-03-18T03:31:03.094Z,99.77
2019-03-18T03:32:04.489Z,99.49
2019-03-18T03:33:05.880Z,99.49
2019-03-18T03:34:12.995Z,99.20
2019-03-18T03:35:08.598Z,99.39
2019-03-18T03:36:10.012Z,99.11
2019-03-18T03:37:11.395Z,99.30
2019-03-18T03:38:12.771Z,98.82
2019-03-18T03:39:14.178Z,98.54
2019-03-18T03:40:15.582Z,98.35
2019-03-18T03:41:18.010Z,99.30
2019-03-18T03:42:18.334Z,98.73
2019-03-18T03:43:19.739Z,98.44
2019-03-18T03:44:21.133Z,99.30
2019-03-18T03:45:22.520Z,99.01
2019-03-18T03:46:23.912Z,98.63
2019-03-18T03:47:25.949Z,98.35
2019-03-18T03:48:27.361Z,98.16
2019-03-18T03:49:28.742Z,98.25
2019-03-18T03:50:30.128Z,98.25
2019-03-18T03:51:31.522Z,98.25
2019-03-18T03:52:32.921Z,97.88
2019-03-18T03:53:34.302Z,98.07
2019-03-18T03:54:35.725Z,97.69
2019-03-18T03:55:37.147Z,97.97
2019-03-18T03:56:38.522Z,97.97
2019-03-18T03:57:39.900Z,97.97
2019-03-18T03:58:41.298Z,97.97
2019-03-18T03:59:42.686Z,97.21
2019-03-18T04:00:44.073Z,97.88
2019-03-18T04:01:45.466Z,97.97
2019-03-18T04:02:46.858Z,97.88
2019-03-18T04:03:48.243Z,97.50
2019-03-18T04:04:49.623Z,97.59
2019-03-18T04:05:51.005Z,97.40
2019-03-18T04:06:52.409Z,97.21
2019-03-18T04:07:53.812Z,97.59
2019-03-18T04:08:55.211Z,97.97
2019-03-18T04:09:56.583Z,97.59
2019-03-18T04:10:57.970Z,97.59
2019-03-18T04:11:59.370Z,97.02
2019-03-18T04:13:00.750Z,97.59
2019-03-18T04:14:02.145Z,97.31
2019-03-18T04:15:03.548Z,97.69
2019-03-18T04:16:04.925Z,97.12
2019-03-18T04:17:06.316Z,97.02
2019-03-18T04:18:07.733Z,97.21
2019-03-18T04:19:09.120Z,96.92
2019-03-18T04:20:10.515Z,96.64
2019-03-18T04:21:11.901Z,96.64
2019-03-18T04:22:13.285Z,96.83
2019-03-18T04:23:14.672Z,96.73
2019-03-18T04:24:16.057Z,96.92
2019-03-18T04:25:17.450Z,96.73
2019-03-18T04:26:18.844Z,96.45
2019-03-18T04:27:20.237Z,96.64
2019-03-18T04:28:21.632Z,96.55
2019-03-18T04:29:23.038Z,96.92
2019-03-18T04:30:24.405Z,96.64
2019-03-18T04:31:25.799Z,96.83
2019-03-18T04:32:27.178Z,96.64
2019-03-18T04:33:28.574Z,95.69
2019-03-18T04:34:29.968Z,95.79
2019-03-18T04:35:31.348Z,95.69
2019-03-18T04:36:32.753Z,95.69
2019-03-18T04:37:34.148Z,95.60
2019-03-18T04:38:35.535Z,96.08
2019-03-18T04:39:36.924Z,95.60
2019-03-18T04:40:38.322Z,95.98
2019-03-18T04:41:39.705Z,95.98
2019-03-18T04:42:41.108Z,95.98
2019-03-18T04:43:42.498Z,95.88
2019-03-18T04:44:43.884Z,95.69
2019-03-18T04:45:45.271Z,95.60
2019-03-18T04:46:46.672Z,95.60
2019-03-18T04:47:48.058Z,95.84
2019-03-18T04:48:49.447Z,95.84
2019-03-18T04:49:50.852Z,96.17
2019-03-18T04:50:52.243Z,96.08
2019-03-18T04:51:53.636Z,95.93
2019-03-18T04:52:55.023Z,95.98
2019-03-18T04:53:56.407Z,96.03
2019-03-18T04:54:57.784Z,95.88
2019-03-18T04:55:59.175Z,95.93
2019-03-18T04:57:00.563Z,96.22
2019-03-18T04:58:01.946Z,95.74
2019-03-18T04:59:03.329Z,95.84
2019-03-18T05:00:04.749Z,96.78
2019-03-18T05:01:06.107Z,96.03
2019-03-18T05:02:07.496Z,96.22
2019-03-18T05:03:08.880Z,95.93
2019-03-18T05:04:10.272Z,95.93
2019-03-18T05:05:11.662Z,96.22
2019-03-18T05:06:13.049Z,95.60
2019-03-18T05:07:14.440Z,95.60
2019-03-18T05:08:15.822Z,95.88
2019-03-18T05:09:17.214Z,96.12
2019-03-18T05:10:18.608Z,95.88
2019-03-18T05:11:19.996Z,96.08
2019-03-18T05:12:21.388Z,96.03
2019-03-18T05:13:22.774Z,96.03
2019-03-18T05:14:24.165Z,95.93
2019-03-18T05:15:25.562Z,96.12
2019-03-18T05:16:26.945Z,95.93
2019-03-18T05:17:28.335Z,96.03
2019-03-18T05:18:29.718Z,95.69
2019-03-18T05:19:31.111Z,95.88
2019-03-18T05:20:32.498Z,96.17
2019-03-18T05:21:33.897Z,96.55
2019-03-18T05:22:35.283Z,96.64
2019-03-18T05:23:36.665Z,96.78
2019-03-18T05:24:38.071Z,96.31
2019-03-18T05:25:39.457Z,96.59
2019-03-18T05:26:40.843Z,96.31
2019-03-18T05:27:42.237Z,96.88
2019-03-18T05:28:43.623Z,96.12
2019-03-18T05:29:45.015Z,96.55
2019-03-18T05:30:46.409Z,96.26
2019-03-18T05:31:47.796Z,96.97
2019-03-18T05:32:49.186Z,96.22
2019-03-18T05:33:50.587Z,96.88
2019-03-18T05:34:51.988Z,96.31
2019-03-18T05:35:53.370Z,96.41
2019-03-18T05:36:54.761Z,96.83
2019-03-18T05:37:56.152Z,96.69
2019-03-18T05:38:57.543Z,96.64
2019-03-18T05:39:58.922Z,96.69
2019-03-18T05:41:00.313Z,96.59
2019-03-18T05:42:01.713Z,96.97
2019-03-18T05:43:03.104Z,96.69
2019-03-18T05:44:04.503Z,96.59
2019-03-18T05:45:05.917Z,96.69
2019-03-18T05:46:07.308Z,96.88
2019-03-18T05:47:08.702Z,96.97
2019-03-18T05:48:10.101Z,96.69
2019-03-18T05:49:11.497Z,96.50
2019-03-18T05:50:12.906Z,96.78
2019-03-18T05:51:14.301Z,96.59
2019-03-18T05:52:15.711Z,96.69
2019-03-18T05:53:17.132Z,96.50
2019-03-18T05:54:18.515Z,96.97
2019-03-18T05:55:19.899Z,96.78
2019-03-18T05:56:21.321Z,96.88
2019-03-18T05:57:22.729Z,96.69
2019-03-18T05:58:24.114Z,96.69
2019-03-18T05:59:25.525Z,96.78
2019-03-18T06:00:26.908Z,96.88
2019-03-18T06:01:28.334Z,96.78
2019-03-18T06:02:29.721Z,96.59
2019-03-18T06:03:31.112Z,97.55
2019-03-18T06:04:32.500Z,97.45
2019-03-18T06:05:33.912Z,97.45
2019-03-18T06:06:35.966Z,97.55
2019-03-18T06:07:37.440Z,97.83
2019-03-18T06:08:38.836Z,97.17
2019-03-18T06:09:40.237Z,97.26
2019-03-18T06:10:42.262Z,98.21
2019-03-18T06:11:43.680Z,98.02
2019-03-18T06:12:45.110Z,98.59
2019-03-18T06:13:46.569Z,98.30
2019-03-18T06:14:47.958Z,98.11
2019-03-18T06:15:49.471Z,97.26
2019-03-18T06:16:50.869Z,96.59
2019-03-18T06:17:53.073Z,97.07
2019-03-18T06:18:53.653Z,97.17
2019-03-18T06:19:55.210Z,97.07
2019-03-18T06:20:56.636Z,96.59
2019-03-18T06:21:58.064Z,96.41
2019-03-18T06:22:59.509Z,95.74
2019-03-18T06:24:00.908Z,95.93
2019-03-18T06:25:02.310Z,95.84
2019-03-18T06:26:03.796Z,96.22
2019-03-18T06:27:05.982Z,96.59
2019-03-18T06:28:07.427Z,95.65
2019-03-18T06:29:08.765Z,95.65
2019-03-18T06:30:10.179Z,95.74
2019-03-18T06:31:11.584Z,95.84
2019-03-18T06:32:13.039Z,96.22
2019-03-18T06:33:14.446Z,96.03
2019-03-18T06:34:15.878Z,95.84
2019-03-18T06:35:20.187Z,95.07
2019-03-18T06:36:18.713Z,95.55
2019-03-18T06:37:20.175Z,95.65
2019-03-18T06:38:21.603Z,95.27
2019-03-18T06:39:23.033Z,95.07
2019-03-18T06:40:24.476Z,95.46
2019-03-18T06:41:25.960Z,95.55
2019-03-18T06:42:27.958Z,95.46
2019-03-18T06:43:29.516Z,94.79
2019-03-18T06:44:30.990Z,95.31
2019-03-18T06:45:32.428Z,94.84
2019-03-18T06:46:33.888Z,95.12
2019-03-18T06:47:35.267Z,94.46
2019-03-18T06:48:36.732Z,94.84
2019-03-18T06:49:38.137Z,94.56
2019-03-18T06:50:39.549Z,93.80
2019-03-18T06:51:40.943Z,93.60
2019-03-18T06:52:42.358Z,93.08
2019-03-18T06:53:43.913Z,92.23
2019-03-18T06:54:45.317Z,90.52
2019-03-18T06:55:46.723Z,90.61
2019-03-18T06:56:48.151Z,89.57
2019-03-18T06:57:49.557Z,89.76
2019-03-18T06:58:50.962Z,88.90
2019-03-18T06:59:52.362Z,88.67
2019-03-18T07:00:53.840Z,88.57
2019-03-18T07:01:55.238Z,88.28
2019-03-18T07:02:56.640Z,86.86
2019-03-18T07:03:58.070Z,86.14
2019-03-18T07:04:59.603Z,85.00
2019-03-18T07:06:00.900Z,84.05
2019-03-18T07:07:02.344Z,84.24
2019-03-18T07:08:03.778Z,83.10
2019-03-18T07:09:05.174Z,83.67
2019-03-18T07:10:06.574Z,83.58
2019-03-18T07:11:07.971Z,83.58
2019-03-18T07:12:09.376Z,84.14
2019-03-18T07:13:10.801Z,84.10
2019-03-18T07:14:12.204Z,84.20
2019-03-18T07:15:13.601Z,84.81
2019-03-18T07:16:15.107Z,83.86
2019-03-18T07:17:16.580Z,83.48
2019-03-18T07:18:18.918Z,83.04
2019-03-18T07:19:19.406Z,82.38
2019-03-18T07:20:20.699Z,81.86
2019-03-18T07:21:22.124Z,82.00
2019-03-18T07:22:23.562Z,82.28
2019-03-18T07:23:24.945Z,81.33
2019-03-18T07:24:26.361Z,80.76
2019-03-18T07:25:27.799Z,80.57
2019-03-18T07:26:29.199Z,80.38
2019-03-18T07:27:30.608Z,80.29
2019-03-18T07:28:32.028Z,80.47
2019-03-18T07:29:33.421Z,80.76
2019-03-18T07:30:34.814Z,81.38
2019-03-18T07:31:36.244Z,81.77
2019-03-18T07:32:37.638Z,81.86
2019-03-18T07:33:39.042Z,82.77
2019-03-18T07:34:40.438Z,83.72
2019-03-18T07:35:41.875Z,83.53
2019-03-18T07:36:43.278Z,84.01
2019-03-18T07:37:44.674Z,84.39
2019-03-18T07:38:46.156Z,84.58
2019-03-18T07:39:47.556Z,84.77
2019-03-18T07:40:48.950Z,85.43
2019-03-18T07:41:50.381Z,85.15
2019-03-18T07:42:51.767Z,85.24
2019-03-18T07:43:53.224Z,85.53
2019-03-18T07:44:54.642Z,85.43
2019-03-18T07:45:56.040Z,85.43
2019-03-18T07:46:57.463Z,85.81
2019-03-18T07:47:58.857Z,85.81
2019-03-18T07:49:00.245Z,86.10
2019-03-18T07:50:01.690Z,86.10
2019-03-18T07:51:03.074Z,86.00
2019-03-18T07:52:04.471Z,86.24
2019-03-18T07:53:05.868Z,86.15
2019-03-18T07:54:07.292Z,86.72
2019-03-18T07:55:08.673Z,87.34
2019-03-18T07:56:10.077Z,87.38
2019-03-18T07:57:11.496Z,87.67
2019-03-18T07:58:12.902Z,87.76
2019-03-18T07:59:14.326Z,87.67
2019-03-18T08:00:15.763Z,87.95
2019-03-18T08:01:18.122Z,87.86
2019-03-18T08:02:19.545Z,88.34
2019-03-18T08:03:20.985Z,87.86
2019-03-18T08:04:22.374Z,87.86
2019-03-18T08:05:23.770Z,88.34
2019-03-18T08:06:25.176Z,88.28
2019-03-18T08:07:26.651Z,87.62
2019-03-18T08:08:28.083Z,86.29
2019-03-18T08:09:29.423Z,85.91
2019-03-18T08:10:30.852Z,85.86
2019-03-18T08:11:32.333Z,84.81
2019-03-18T08:12:33.817Z,83.71
2019-03-18T08:13:35.229Z,82.61
2019-03-18T08:14:36.680Z,80.36
2019-03-18T08:15:38.083Z,76.86
2019-03-18T08:16:39.499Z,71.75
2019-03-18T08:17:40.914Z,68.57
2019-03-18T08:18:43.445Z,65.26
2019-03-18T08:19:43.699Z,62.59
2019-03-18T08:20:45.106Z,61.63
2019-03-18T08:21:46.513Z,61.63
2019-03-18T08:22:47.989Z,62.46
2019-03-18T08:23:49.387Z,62.62
2019-03-18T08:24:50.858Z,63.83
2019-03-18T08:25:52.261Z,65.13
2019-03-18T08:26:53.725Z,66.66
2019-03-18T08:27:55.152Z,67.77
2019-03-18T08:28:56.552Z,68.63
2019-03-18T08:29:57.956Z,69.26
2019-03-18T08:30:59.423Z,70.21
2019-03-18T08:32:00.826Z,71.13
2019-03-18T08:33:02.239Z,71.89
2019-03-18T08:34:03.644Z,72.56
2019-03-18T08:35:05.049Z,73.28
2019-03-18T08:36:06.463Z,74.04
2019-03-18T08:37:07.861Z,74.80
2019-03-18T08:38:09.276Z,75.28
2019-03-18T08:39:10.686Z,75.53
2019-03-18T08:40:12.114Z,76.01
2019-03-18T08:41:13.521Z,76.29
2019-03-18T08:42:14.929Z,76.67
2019-03-18T08:43:16.333Z,77.43
2019-03-18T08:44:17.723Z,77.62
2019-03-18T08:45:19.125Z,77.53
2019-03-18T08:46:20.547Z,77.53
2019-03-18T08:47:21.945Z,77.15
2019-03-18T08:48:23.375Z,77.39
2019-03-18T08:49:24.769Z,77.68
2019-03-18T08:50:26.163Z,79.01
2019-03-18T08:51:27.576Z,78.72
2019-03-18T08:52:29.004Z,78.72
2019-03-18T08:53:30.422Z,79.01
2019-03-18T08:54:31.880Z,79.96
2019-03-18T08:55:33.302Z,79.86
2019-03-18T08:56:34.743Z,79.96
2019-03-18T08:57:36.226Z,80.53
2019-03-18T08:58:37.718Z,80.63
2019-03-18T08:59:39.076Z,80.63
2019-03-18T09:00:40.489Z,80.82
2019-03-18T09:01:41.934Z,80.72
2019-03-18T09:02:43.384Z,80.15
2019-03-18T09:03:44.837Z,79.68
2019-03-18T09:04:46.260Z,80.15
2019-03-18T09:05:47.731Z,79.86
2019-03-18T09:06:49.141Z,79.86
2019-03-18T09:07:50.551Z,79.58
2019-03-18T09:08:51.969Z,79.86
2019-03-18T09:09:53.361Z,80.15
2019-03-18T09:10:54.826Z,79.30
2019-03-18T09:11:56.251Z,79.49
2019-03-18T09:12:57.642Z,79.58
2019-03-18T09:13:59.044Z,79.86
2019-03-18T09:15:00.453Z,79.58
2019-03-18T09:16:01.932Z,80.15
2019-03-18T09:17:03.370Z,79.58
2019-03-18T09:18:04.808Z,79.96
2019-03-18T09:19:08.851Z,80.34
2019-03-18T09:20:07.595Z,80.15
2019-03-18T09:21:08.989Z,79.96
2019-03-18T09:22:10.406Z,80.63
2019-03-18T09:23:11.804Z,80.53
2019-03-18T09:24:13.278Z,80.44
2019-03-18T09:25:14.794Z,80.44
2019-03-18T09:26:16.173Z,80.72
2019-03-18T09:27:17.585Z,80.63
2019-03-18T09:28:19.082Z,80.82
2019-03-18T09:29:20.488Z,80.82
2019-03-18T09:30:21.884Z,80.72
2019-03-18T09:31:23.379Z,80.72
2019-03-18T09:32:24.693Z,80.53
2019-03-18T09:33:26.116Z,80.53
2019-03-18T09:34:27.509Z,80.34
2019-03-18T09:35:28.990Z,79.68
2019-03-18T09:36:30.273Z,79.77
2019-03-18T09:37:31.676Z,79.20
2019-03-18T09:38:33.065Z,79.49
2019-03-18T09:39:34.454Z,79.39
2019-03-18T09:40:35.863Z,79.39
2019-03-18T09:41:37.251Z,79.30
2019-03-18T09:42:38.641Z,78.91
2019-03-18T09:43:40.035Z,79.01
2019-03-18T09:44:41.426Z,78.57
2019-03-18T09:45:42.829Z,78.16
2019-03-18T09:46:44.232Z,78.16
2019-03-18T09:47:45.622Z,78.34
2019-03-18T09:48:47.014Z,78.77
2019-03-18T09:49:48.414Z,78.10
2019-03-18T09:50:49.809Z,78.34
2019-03-18T09:51:51.203Z,78.34
2019-03-18T09:52:52.590Z,77.77
2019-03-18T09:53:53.994Z,78.00
2019-03-18T09:54:55.391Z,77.91
2019-03-18T09:55:56.793Z,77.62
2019-03-18T09:56:58.191Z,77.81
2019-03-18T09:57:59.578Z,77.53
2019-03-18T09:59:00.988Z,77.34
2019-03-18T10:00:02.378Z,77.72
2019-03-18T10:01:03.779Z,77.72
2019-03-18T10:02:05.196Z,77.91
2019-03-18T10:03:06.592Z,77.91
2019-03-18T10:04:07.991Z,77.05
2019-03-18T10:05:09.386Z,77.62
2019-03-18T10:06:10.785Z,77.81
2019-03-18T10:07:12.187Z,78.00
2019-03-18T10:08:13.603Z,78.77
2019-03-18T10:09:14.985Z,79.05
2019-03-18T10:10:16.393Z,79.05
2019-03-18T10:11:17.791Z,79.33
2019-03-18T10:12:19.181Z,79.33
2019-03-18T10:13:20.577Z,80.38
2019-03-18T10:14:21.978Z,80.47
2019-03-18T10:15:23.386Z,80.47
2019-03-18T10:16:24.773Z,80.95
2019-03-18T10:17:26.170Z,80.38
2019-03-18T10:18:27.568Z,79.81
2019-03-18T10:19:33.515Z,79.09
2019-03-18T10:20:30.327Z,78.71
2019-03-18T10:21:31.720Z,79.38
2019-03-18T10:22:35.843Z,79.94
2019-03-18T10:23:34.540Z,79.75
2019-03-18T10:24:35.814Z,79.91
2019-03-18T10:25:37.206Z,79.72
2019-03-18T10:26:38.618Z,80.95
2019-03-18T10:27:40.044Z,81.14
2019-03-18T10:28:41.465Z,81.33
2019-03-18T10:29:42.972Z,82.86
2019-03-18T10:30:44.415Z,82.48
2019-03-18T10:31:45.842Z,82.95
2019-03-18T10:32:47.253Z,83.42
2019-03-18T10:33:48.679Z,83.14
2019-03-18T10:34:50.153Z,82.38
2019-03-18T10:35:53.938Z,82.28
2019-03-18T10:36:52.977Z,82.38
2019-03-18T10:37:54.407Z,82.00
2019-03-18T10:38:55.873Z,81.37
2019-03-18T10:39:57.297Z,81.28
2019-03-18T10:40:59.710Z,80.23
2019-03-18T10:42:00.116Z,79.28
2019-03-18T10:43:01.522Z,79.47
2019-03-18T10:44:02.913Z,79.57
2019-03-18T10:45:04.351Z,78.27
2019-03-18T10:46:05.767Z,77.22
2019-03-18T10:47:07.244Z,75.99
2019-03-18T10:48:08.652Z,74.56
2019-03-18T10:49:10.135Z,75.23
2019-03-18T10:50:11.546Z,75.55
2019-03-18T10:51:12.999Z,74.79
2019-03-18T10:52:14.472Z,73.17
2019-03-18T10:53:15.916Z,71.64
2019-03-18T10:54:26.223Z,70.78
2019-03-18T10:55:18.778Z,69.93
2019-03-18T10:56:20.192Z,69.07
2019-03-18T10:57:21.629Z,70.02
2019-03-18T10:58:23.073Z,69.20
2019-03-18T10:59:24.511Z,69.45
2019-03-18T11:00:26.038Z,69.39
2019-03-18T11:01:27.434Z,69.48
2019-03-18T11:02:28.947Z,69.29
2019-03-18T11:03:30.381Z,68.44
2019-03-18T11:04:31.815Z,69.17
2019-03-18T11:05:33.270Z,70.12
2019-03-18T11:06:34.715Z,70.12
2019-03-18T11:07:36.175Z,71.17
2019-03-18T11:08:37.600Z,72.46
2019-03-18T11:09:39.043Z,72.85
2019-03-18T11:10:40.537Z,74.08
2019-03-18T11:11:41.950Z,73.89
2019-03-18T11:12:44.367Z,74.84
2019-03-18T11:13:45.789Z,76.23
2019-03-18T11:14:47.235Z,78.42
2019-03-18T11:15:48.670Z,80.61
2019-03-18T11:16:52.371Z,81.76
2019-03-18T11:17:51.563Z,82.99
2019-03-18T11:18:52.976Z,83.18
2019-03-18T11:19:58.763Z,83.56
2019-03-18T11:20:55.796Z,83.85
2019-03-18T11:21:57.222Z,83.85
2019-03-18T11:22:58.664Z,84.04
2019-03-18T11:24:00.560Z,83.56
2019-03-18T11:25:01.990Z,83.28
2019-03-18T11:26:03.402Z,83.32
2019-03-18T11:27:04.862Z,82.27
2019-03-18T11:28:06.259Z,82.50
2019-03-18T11:29:08.335Z,79.83
2019-03-18T11:30:09.795Z,77.87
2019-03-18T11:31:11.195Z,76.44
2019-03-18T11:32:12.591Z,76.44
2019-03-18T11:33:13.995Z,75.59
2019-03-18T11:34:15.401Z,73.68
2019-03-18T11:35:16.848Z,72.86
2019-03-18T11:36:18.251Z,72.76
2019-03-18T11:37:19.669Z,71.62
2019-03-18T11:38:21.088Z,71.81
2019-03-18T11:39:22.526Z,71.01
2019-03-18T11:40:23.977Z,71.01
2019-03-18T11:41:25.376Z,71.30
2019-03-18T11:42:26.778Z,71.58
2019-03-18T11:43:28.218Z,71.39
2019-03-18T11:44:29.622Z,72.06
2019-03-18T11:45:31.026Z,72.69
2019-03-18T11:46:32.466Z,72.53
2019-03-18T11:47:33.872Z,72.34
2019-03-18T11:48:35.320Z,73.74
2019-03-18T11:49:39.918Z,75.45
2019-03-18T11:50:38.149Z,76.79
2019-03-18T11:51:39.575Z,77.17
2019-03-18T11:52:40.994Z,77.26
2019-03-18T11:53:42.436Z,77.74
2019-03-18T11:54:43.875Z,77.07
2019-03-18T11:55:45.291Z,76.50
2019-03-18T11:56:46.715Z,76.79
2019-03-18T11:57:48.109Z,76.21
2019-03-18T11:58:49.526Z,75.87
2019-03-18T11:59:50.968Z,75.01
2019-03-18T12:00:52.366Z,73.87
2019-03-18T12:01:53.771Z,73.96
2019-03-18T12:02:55.195Z,74.25
2019-03-18T12:03:56.591Z,73.96
2019-03-18T12:04:58.048Z,73.30
2019-03-18T12:05:59.451Z,72.72
2019-03-18T12:07:00.977Z,73.01
2019-03-18T12:08:03.182Z,72.72
2019-03-18T12:09:04.579Z,72.72
2019-03-18T12:10:05.966Z,73.39
2019-03-18T12:11:07.376Z,74.16
2019-03-18T12:12:08.821Z,73.74
2019-03-18T12:13:10.225Z,74.79
2019-03-18T12:14:11.632Z,75.26
2019-03-18T12:15:13.042Z,75.07
2019-03-18T12:16:14.439Z,75.45
2019-03-18T12:17:15.882Z,75.55
2019-03-18T12:18:17.290Z,75.84
2019-03-18T12:19:18.685Z,76.08
2019-03-18T12:20:24.700Z,75.99
2019-03-18T12:21:21.454Z,77.51
2019-03-18T12:22:22.844Z,78.27
2019-03-18T12:23:24.266Z,78.17
2019-03-18T12:24:25.680Z,78.61
2019-03-18T12:25:27.086Z,79.09
2019-03-18T12:26:28.483Z,80.23
2019-03-18T12:27:29.895Z,80.13
2019-03-18T12:28:31.312Z,80.80
2019-03-18T12:29:32.725Z,80.71
2019-03-18T12:30:34.201Z,81.37
2019-03-18T12:31:35.515Z,81.47
2019-03-18T12:32:37.689Z,81.32
2019-03-18T12:33:39.089Z,81.13
2019-03-18T12:34:40.510Z,81.51
2019-03-18T12:35:41.880Z,80.94
2019-03-18T12:36:43.302Z,79.80
2019-03-18T12:37:44.721Z,77.61
2019-03-18T12:38:46.169Z,75.99
2019-03-18T12:39:47.546Z,75.64
2019-03-18T12:40:48.988Z,74.79
2019-03-18T12:41:50.418Z,73.83
2019-03-18T12:42:51.844Z,74.02
2019-03-18T12:43:53.276Z,73.26
2019-03-18T12:44:54.744Z,73.17
2019-03-18T12:45:56.155Z,73.17
2019-03-18T12:46:57.574Z,73.26
2019-03-18T12:47:59.004Z,73.74
2019-03-18T12:49:00.426Z,73.65
2019-03-18T12:50:01.883Z,74.02
2019-03-18T12:51:03.353Z,75.04
2019-03-18T12:52:04.825Z,74.79
2019-03-18T12:53:06.265Z,74.98
2019-03-18T12:54:07.714Z,74.02
2019-03-18T12:55:09.159Z,74.12
2019-03-18T12:56:10.621Z,74.12
2019-03-18T12:57:12.056Z,73.74
2019-03-18T12:58:13.492Z,74.12
2019-03-18T12:59:14.985Z,74.60
2019-03-18T13:00:16.433Z,74.79
2019-03-18T13:01:17.921Z,74.21
2019-03-18T13:02:19.412Z,74.88
2019-03-18T13:03:20.875Z,74.79
2019-03-18T13:04:23.142Z,73.93
2019-03-18T13:05:24.685Z,74.02
2019-03-18T13:06:26.130Z,72.97
2019-03-18T13:07:27.584Z,73.07
2019-03-18T13:08:29.030Z,73.07
2019-03-18T13:09:30.456Z,73.26
2019-03-18T13:10:31.894Z,72.78